Time;durP1;ratioP1;P1;durP2;ratioP2;P2;SDS_P1;SDS_P2;PMS_P1;PMS_P2;Temp;Humidity;BMP_temperature;BMP_pressure;BME280_temperature;BME280_humidity;BME280_pressure;Samples;Min_cycle;Max_cycle;Signal;HPM_P1;HPM_P2
2024/03/18 00:02:10;;;;;;;12.23;9.88;;;;;;;;;;10116164;28;20036;-77
2024/03/18 00:07:03;;;;;;;11.43;9.32;;;;;;;;;;10117956;28;20142;-74
2024/03/18 00:11:55;;;;;;;11.68;8.63;;;;;;;;;;10118158;28;20061;-74
2024/03/18 00:16:48;;;;;;;9.80;7.18;;;;;;;;;;10113215;28;20086;-75
2024/03/18 00:21:41;;;;;;;8.18;6.55;;;;;;;;;;10117801;28;20504;-74
2024/03/18 00:26:33;;;;;;;10.02;7.50;;;;;;;;;;10118779;28;20044;-77
2024/03/18 00:31:25;;;;;;;9.85;7.30;;;;;;;;;;10121933;28;20059;-75
2024/03/18 00:36:19;;;;;;;11.02;7.10;;;;;;;;;;10108382;28;20423;-75
2024/03/18 00:46:23;;;;;;;12.30;8.40;;;;;;;;;;10130698;28;20459;-75
2024/03/18 00:51:15;;;;;;;9.52;8.20;;;;;;;;;;10131881;28;20496;-75
2024/03/18 00:56:08;;;;;;;10.65;9.07;;;;;;;;;;10128592;28;20053;-75
2024/03/18 01:01:02;;;;;;;10.60;8.85;;;;;;;;;;10130663;28;20394;-74
2024/03/18 01:05:55;;;;;;;13.55;10.10;;;;;;;;;;10130969;28;20037;-75
2024/03/18 01:10:48;;;;;;;12.65;11.35;;;;;;;;;;10130978;28;20087;-76
2024/03/18 01:15:40;;;;;;;18.40;12.88;;;;;;;;;;10127366;28;20060;-76
2024/03/18 01:20:33;;;;;;;15.48;13.57;;;;;;;;;;10129394;28;20554;-77
2024/03/18 01:25:27;;;;;;;21.33;15.77;;;;;;;;;;10126816;28;20048;-76
2024/03/18 01:30:19;;;;;;;19.80;15.25;;;;;;;;;;10121254;28;20086;-76
2024/03/18 01:35:12;;;;;;;16.58;14.10;;;;;;;;;;10127970;28;20044;-76
2024/03/18 01:40:10;;;;;;;21.35;16.55;;;;;;;;;;10126748;28;20048;-76
2024/03/18 01:45:06;;;;;;;19.50;15.77;;;;;;;;;;10114924;28;20095;-75
2024/03/18 01:49:57;;;;;;;18.38;16.08;;;;;;;;;;10127514;28;20506;-77
2024/03/18 01:54:50;;;;;;;21.98;16.30;;;;;;;;;;10128845;28;20059;-76
2024/03/18 01:59:43;;;;;;;18.30;15.00;;;;;;;;;;10124225;28;20426;-76
2024/03/18 02:04:36;;;;;;;18.98;14.23;;;;;;;;;;10126623;28;20036;-76
2024/03/18 02:09:29;;;;;;;18.98;16.35;;;;;;;;;;10124842;28;20048;-76
2024/03/18 02:14:22;;;;;;;18.05;15.38;;;;;;;;;;10119931;28;20059;-76
2024/03/18 02:19:14;;;;;;;20.02;16.25;;;;;;;;;;10126224;28;20113;-76
2024/03/18 02:24:07;;;;;;;19.98;15.57;;;;;;;;;;10121676;28;20063;-76
2024/03/18 02:28:59;;;;;;;20.08;15.82;;;;;;;;;;10125134;28;20052;-76
2024/03/18 02:33:52;;;;;;;20.48;15.48;;;;;;;;;;10115709;28;20040;-76
2024/03/18 02:38:45;;;;;;;21.73;15.07;;;;;;;;;;10125774;28;20048;-76
2024/03/18 02:43:37;;;;;;;19.45;15.65;;;;;;;;;;10123404;28;20056;-76
2024/03/18 02:48:30;;;;;;;16.60;13.98;;;;;;;;;;10125223;28;20048;-76
2024/03/18 02:53:21;;;;;;;19.17;13.75;;;;;;;;;;10124882;28;20068;-76
2024/03/18 02:58:14;;;;;;;15.75;13.13;;;;;;;;;;10124674;28;20075;-76
2024/03/18 03:03:06;;;;;;;14.60;10.63;;;;;;;;;;10123826;28;20457;-76
2024/03/18 03:07:58;;;;;;;12.57;9.35;;;;;;;;;;10120894;28;20100;-76
2024/03/18 03:12:51;;;;;;;10.18;8.38;;;;;;;;;;10125120;28;20450;-76
2024/03/18 03:17:43;;;;;;;12.27;7.95;;;;;;;;;;10115856;28;20044;-76
2024/03/18 03:22:36;;;;;;;8.93;6.82;;;;;;;;;;10121151;28;20066;-76
2024/03/18 03:27:29;;;;;;;8.13;6.97;;;;;;;;;;10125065;28;20052;-77
2024/03/18 03:32:23;;;;;;;8.57;7.05;;;;;;;;;;10124307;28;20048;-76
2024/03/18 03:37:15;;;;;;;8.88;6.75;;;;;;;;;;10116978;28;20455;-77
2024/03/18 03:42:07;;;;;;;14.73;7.75;;;;;;;;;;10113537;28;20057;-76
2024/03/18 03:47:00;;;;;;;9.88;7.55;;;;;;;;;;10121774;28;20045;-76
2024/03/18 03:51:52;;;;;;;11.98;9.23;;;;;;;;;;10121640;28;20091;-76
2024/03/18 03:56:45;;;;;;;14.68;9.45;;;;;;;;;;10123678;28;20055;-76
2024/03/18 04:01:37;;;;;;;10.57;6.95;;;;;;;;;;10121895;28;20508;-76
2024/03/18 04:06:29;;;;;;;9.93;5.57;;;;;;;;;;10122768;28;20056;-76
2024/03/18 04:11:22;;;;;;;8.40;6.32;;;;;;;;;;10121462;28;20037;-76
2024/03/18 04:16:16;;;;;;;7.68;6.68;;;;;;;;;;10122258;28;20097;-76
2024/03/18 04:21:08;;;;;;;7.70;5.97;;;;;;;;;;10123007;28;20056;-76
2024/03/18 04:26:05;;;;;;;8.00;5.90;;;;;;;;;;10122395;28;20505;-75
2024/03/18 04:31:00;;;;;;;12.82;4.53;;;;;;;;;;10118735;28;20061;-76
2024/03/18 04:35:56;;;;;;;8.15;5.13;;;;;;;;;;10113640;28;20047;-75
2024/03/18 04:40:48;;;;;;;4.32;3.75;;;;;;;;;;10118483;28;20037;-75
2024/03/18 04:45:42;;;;;;;9.77;5.20;;;;;;;;;;10122223;28;20484;-77
2024/03/18 04:50:34;;;;;;;6.60;4.78;;;;;;;;;;10118299;28;20045;-77
2024/03/18 04:55:27;;;;;;;6.78;4.57;;;;;;;;;;10130883;28;20121;-77
2024/03/18 05:00:19;;;;;;;5.60;4.95;;;;;;;;;;10127893;28;20123;-77
2024/03/18 05:05:14;;;;;;;9.30;5.97;;;;;;;;;;10122344;28;20045;-77
2024/03/18 05:10:08;;;;;;;9.98;7.68;;;;;;;;;;10124768;28;20094;-76
2024/03/18 05:15:00;;;;;;;12.80;7.88;;;;;;;;;;10128142;28;20634;-76
2024/03/18 05:19:56;;;;;;;7.63;6.72;;;;;;;;;;10128641;28;20044;-77
2024/03/18 05:24:49;;;;;;;16.52;11.00;;;;;;;;;;10127484;28;20063;-77
2024/03/18 05:29:41;;;;;;;16.65;10.90;;;;;;;;;;10127594;28;20063;-77
2024/03/18 05:34:34;;;;;;;14.98;10.88;;;;;;;;;;10120856;28;20051;-77
2024/03/18 05:39:27;;;;;;;14.48;11.73;;;;;;;;;;10128471;28;20048;-77
2024/03/18 05:44:20;;;;;;;17.70;13.15;;;;;;;;;;10127065;28;20094;-77
2024/03/18 05:49:12;;;;;;;15.20;12.30;;;;;;;;;;10127119;28;20105;-75
2024/03/18 05:54:04;;;;;;;14.07;11.80;;;;;;;;;;10126894;28;20044;-74
2024/03/18 05:58:57;;;;;;;16.77;11.63;;;;;;;;;;10127712;28;20043;-75
2024/03/18 06:03:50;;;;;;;15.32;13.75;;;;;;;;;;10118380;28;20045;-76
2024/03/18 06:08:43;;;;;;;42.17;33.45;;;;;;;;;;10119350;28;20048;-76
2024/03/18 06:13:35;;;;;;;24.42;17.85;;;;;;;;;;10109730;28;20136;-76
2024/03/18 06:18:28;;;;;;;15.60;11.15;;;;;;;;;;10118414;28;20047;-75
2024/03/18 06:23:30;;;;;;;13.98;10.93;;;;;;;;;;10112602;28;20139;-76
2024/03/18 06:28:22;;;;;;;22.10;16.63;;;;;;;;;;10115896;28;20105;-77
2024/03/18 06:33:15;;;;;;;16.95;11.57;;;;;;;;;;10108566;28;20076;-77
2024/03/18 06:38:07;;;;;;;15.27;9.85;;;;;;;;;;10121243;28;20048;-77
2024/03/18 06:43:01;;;;;;;12.32;8.52;;;;;;;;;;10126409;28;20045;-79
2024/03/18 06:47:53;;;;;;;8.48;6.30;;;;;;;;;;10128286;28;20072;-76
2024/03/18 06:52:46;;;;;;;8.85;5.88;;;;;;;;;;10126935;28;20407;-77
2024/03/18 06:57:39;;;;;;;8.50;6.75;;;;;;;;;;10123536;28;20066;-79
2024/03/18 07:02:31;;;;;;;19.90;12.75;;;;;;;;;;10124455;28;20048;-76
2024/03/18 07:07:24;;;;;;;23.20;16.38;;;;;;;;;;10117751;28;20127;-76
2024/03/18 07:12:16;;;;;;;27.90;16.15;;;;;;;;;;10122605;28;20048;-76
2024/03/18 07:17:08;;;;;;;34.80;15.00;;;;;;;;;;10125081;28;20056;-77
2024/03/18 07:22:01;;;;;;;20.13;12.10;;;;;;;;;;10125731;28;20052;-76
2024/03/18 07:26:54;;;;;;;20.00;11.73;;;;;;;;;;10117096;28;20131;-76
2024/03/18 07:31:47;;;;;;;19.27;11.77;;;;;;;;;;10125639;28;20079;-76
2024/03/18 07:36:40;;;;;;;20.45;13.93;;;;;;;;;;10135534;28;20053;-76
2024/03/18 07:41:35;;;;;;;20.67;12.80;;;;;;;;;;10119718;28;20091;-78
2024/03/18 07:46:31;;;;;;;;;;;;;;;;;;10107447;28;20056;-78
2024/03/18 07:51:23;;;;;;;24.85;15.85;;;;;;;;;;10119581;28;19931;-79
2024/03/18 07:56:15;;;;;;;18.13;13.73;;;;;;;;;;10121151;28;20080;-77
2024/03/18 08:01:11;;;;;;;14.27;11.48;;;;;;;;;;10121279;28;20374;-78
2024/03/18 08:06:11;;;;;;;15.25;10.40;;;;;;;;;;10114877;28;20054;-78
2024/03/18 08:11:04;;;;;;;17.75;11.80;;;;;;;;;;10121762;28;20061;-78
2024/03/18 08:15:56;;;;;;;16.80;13.68;;;;;;;;;;10122486;28;20041;-79
2024/03/18 08:20:49;;;;;;;28.67;18.77;;;;;;;;;;10123418;28;20102;-79
2024/03/18 08:25:41;;;;;;;22.63;15.27;;;;;;;;;;10121435;28;20063;-78
2024/03/18 08:30:34;;;;;;;20.15;15.68;;;;;;;;;;10124191;28;20040;-78
2024/03/18 08:35:28;;;;;;;17.02;13.55;;;;;;;;;;10122398;28;20044;-78
2024/03/18 08:40:19;;;;;;;22.08;14.13;;;;;;;;;;10125379;28;20048;-79
2024/03/18 08:45:12;;;;;;;19.90;12.30;;;;;;;;;;10126888;28;20056;-78
2024/03/18 08:50:04;;;;;;;22.58;16.73;;;;;;;;;;10125286;28;20052;-78
2024/03/18 08:54:56;;;;;;;25.50;18.65;;;;;;;;;;10128367;28;20123;-78
2024/03/18 08:59:52;;;;;;;33.20;23.33;;;;;;;;;;10128811;28;20098;-78
2024/03/18 09:04:46;;;;;;;27.55;23.00;;;;;;;;;;10128044;28;20059;-79
2024/03/18 09:09:39;;;;;;;31.02;22.30;;;;;;;;;;10125203;28;20068;-78
2024/03/18 09:14:31;;;;;;;39.50;23.95;;;;;;;;;;10122334;28;20048;-78
2024/03/18 09:19:24;;;;;;;35.03;25.55;;;;;;;;;;10115190;28;20071;-77
2024/03/18 09:24:20;;;;;;;28.73;22.42;;;;;;;;;;10123342;28;20052;-80
2024/03/18 09:29:13;;;;;;;28.45;21.90;;;;;;;;;;10124722;28;20408;-79
2024/03/18 09:34:06;;;;;;;38.13;21.88;;;;;;;;;;10122360;28;20504;-81
2024/03/18 09:38:59;;;;;;;36.42;25.40;;;;;;;;;;10125210;28;20051;-80
2024/03/18 09:43:52;;;;;;;37.35;24.98;;;;;;;;;;10122646;28;20056;-81
2024/03/18 09:48:45;;;;;;;38.53;23.95;;;;;;;;;;10121602;28;20079;-80
2024/03/18 09:53:39;;;;;;;36.63;22.95;;;;;;;;;;10117871;28;20032;-80
2024/03/18 09:58:31;;;;;;;28.60;19.88;;;;;;;;;;10128563;28;20041;-79
2024/03/18 10:03:28;;;;;;;26.10;21.25;;;;;;;;;;10120021;28;20496;-79
2024/03/18 10:08:21;;;;;;;27.40;21.00;;;;;;;;;;10120575;28;20040;-80
2024/03/18 10:13:13;;;;;;;25.13;21.85;;;;;;;;;;10122525;28;20052;-80
2024/03/18 10:18:12;;;;;;;34.22;22.35;;;;;;;;;;10124237;28;20056;-80
2024/03/18 10:23:05;;;;;;;27.42;21.65;;;;;;;;;;10119185;28;20064;-80
2024/03/18 10:27:57;;;;;;;37.63;20.52;;;;;;;;;;10125373;28;20076;-80
2024/03/18 10:32:50;;;;;;;21.55;17.83;;;;;;;;;;10124724;28;20048;-80
2024/03/18 10:37:42;;;;;;;16.10;12.55;;;;;;;;;;10124962;28;20045;-80
2024/03/18 10:42:34;;;;;;;21.70;14.40;;;;;;;;;;10123108;28;20090;-80
2024/03/18 10:47:27;;;;;;;20.65;14.55;;;;;;;;;;10124197;28;20059;-79
2024/03/18 10:52:20;;;;;;;18.70;13.82;;;;;;;;;;10121822;28;20500;-80
2024/03/18 10:57:12;;;;;;;13.60;11.45;;;;;;;;;;10122475;28;20060;-80
2024/03/18 11:02:12;;;;;;;17.13;12.65;;;;;;;;;;10133770;28;20128;-80
2024/03/18 11:07:05;;;;;;;19.02;12.85;;;;;;;;;;10117493;28;20048;-79
2024/03/18 11:11:57;;;;;;;12.13;10.85;;;;;;;;;;10122267;28;20052;-79
2024/03/18 11:16:50;;;;;;;12.07;10.82;;;;;;;;;;10120716;28;20052;-79
2024/03/18 11:21:42;;;;;;;23.15;15.38;;;;;;;;;;10123728;28;20122;-79
2024/03/18 11:26:40;;;;;;;15.55;12.93;;;;;;;;;;10123571;28;20060;-80
2024/03/18 11:31:36;;;;;;;17.13;12.35;;;;;;;;;;10124171;28;20045;-78
2024/03/18 11:36:29;;;;;;;16.08;13.95;;;;;;;;;;10122620;28;20450;-76
2024/03/18 11:41:21;;;;;;;15.45;12.60;;;;;;;;;;10122361;28;20056;-77
2024/03/18 11:46:16;;;;;;;17.33;13.25;;;;;;;;;;10117733;28;20657;-78
2024/03/18 11:51:12;;;;;;;20.17;13.25;;;;;;;;;;10122381;28;20071;-78
2024/03/18 11:56:05;;;;;;;17.52;14.23;;;;;;;;;;10113412;28;20049;-77
2024/03/18 12:00:57;;;;;;;17.52;14.05;;;;;;;;;;10125403;28;20041;-77
2024/03/18 12:05:50;;;;;;;16.42;13.65;;;;;;;;;;10129065;28;20394;-77
2024/03/18 12:10:44;;;;;;;19.65;14.25;;;;;;;;;;10132453;28;20044;-77
2024/03/18 12:15:36;;;;;;;18.60;14.50;;;;;;;;;;10126638;28;20428;-79
2024/03/18 12:20:32;;;;;;;16.35;12.85;;;;;;;;;;10132484;28;20148;-77
2024/03/18 12:30:41;;;;;;;20.33;13.63;;;;;;;;;;10126392;28;20082;-76
2024/03/18 12:35:33;;;;;;;18.55;11.80;;;;;;;;;;10122468;28;20504;-77
2024/03/18 12:40:25;;;;;;;17.25;12.20;;;;;;;;;;10127578;28;20057;-75
2024/03/18 12:45:20;;;;;;;15.23;11.05;;;;;;;;;;10126110;28;20420;-76
2024/03/18 12:50:17;;;;;;;15.02;12.57;;;;;;;;;;10130167;28;20037;-77
2024/03/18 12:55:10;;;;;;;19.05;12.10;;;;;;;;;;10138941;28;20056;-77
2024/03/18 13:00:05;;;;;;;16.75;11.00;;;;;;;;;;10120382;28;20489;-77
2024/03/18 13:04:59;;;;;;;11.93;10.20;;;;;;;;;;10128672;28;20052;-78
2024/03/18 13:09:51;;;;;;;12.07;9.88;;;;;;;;;;10135232;28;20060;-78
2024/03/18 13:14:43;;;;;;;14.50;10.05;;;;;;;;;;10125026;28;20052;-77
2024/03/18 13:19:35;;;;;;;12.55;9.80;;;;;;;;;;10127237;28;20048;-78
2024/03/18 13:24:30;;;;;;;14.13;9.73;;;;;;;;;;10122445;28;20062;-78
2024/03/18 13:29:26;;;;;;;10.82;9.70;;;;;;;;;;10115665;28;20471;-79
2024/03/18 13:34:18;;;;;;;12.07;9.45;;;;;;;;;;10111899;28;20057;-79
2024/03/18 13:39:10;;;;;;;14.27;9.63;;;;;;;;;;10126971;28;20074;-78
2024/03/18 13:44:03;;;;;;;14.27;10.20;;;;;;;;;;10126718;28;20053;-78
2024/03/18 13:48:55;;;;;;;11.85;10.48;;;;;;;;;;10117363;28;20044;-78
2024/03/18 13:53:48;;;;;;;21.90;13.15;;;;;;;;;;10126321;28;20047;-78
2024/03/18 13:58:41;;;;;;;14.18;9.98;;;;;;;;;;10120785;28;20033;-77
2024/03/18 14:03:34;;;;;;;16.98;10.63;;;;;;;;;;10124404;28;20459;-78
2024/03/18 14:08:26;;;;;;;13.32;10.35;;;;;;;;;;10124926;28;20056;-80
2024/03/18 14:13:19;;;;;;;16.30;11.77;;;;;;;;;;10117291;28;20144;-79
2024/03/18 14:18:11;;;;;;;17.45;12.25;;;;;;;;;;10127456;28;20400;-79
2024/03/18 14:23:04;;;;;;;17.10;11.60;;;;;;;;;;10121650;28;20060;-79
2024/03/18 14:28:04;;;;;;;13.82;11.95;;;;;;;;;;10123494;28;20056;-78
2024/03/18 14:32:57;;;;;;;20.55;12.73;;;;;;;;;;10121460;28;20055;-78
2024/03/18 14:37:49;;;;;;;23.20;14.77;;;;;;;;;;10123498;28;20053;-79
2024/03/18 14:42:43;;;;;;;15.18;11.50;;;;;;;;;;10123121;28;20052;-79
2024/03/18 14:47:47;;;;;;;15.30;11.95;;;;;;;;;;10235181;27;20415;-80
2024/03/18 14:53:01;;;;;;;19.52;14.73;;;;;;;;;;10159126;28;20109;-79
2024/03/18 14:57:54;;;;;;;16.40;14.30;;;;;;;;;;10156433;28;20047;-79
2024/03/18 15:02:46;;;;;;;15.07;13.13;;;;;;;;;;10155794;28;20053;-79
2024/03/18 15:07:43;;;;;;;22.50;14.05;;;;;;;;;;10157152;28;20036;-80
2024/03/18 15:12:36;;;;;;;19.75;13.55;;;;;;;;;;10158487;28;20109;-80
2024/03/18 15:17:29;;;;;;;16.75;13.75;;;;;;;;;;10158039;28;20075;-81
2024/03/18 15:22:22;;;;;;;18.85;13.93;;;;;;;;;;10159098;28;20044;-79
2024/03/18 15:32:25;;;;;;;23.83;17.15;;;;;;;;;;10162178;28;20040;-80
2024/03/18 15:37:17;;;;;;;17.90;13.68;;;;;;;;;;10158468;28;20587;-78
2024/03/18 15:42:10;;;;;;;16.42;13.30;;;;;;;;;;10159591;28;20059;-79
2024/03/18 15:47:04;;;;;;;19.50;13.65;;;;;;;;;;10135457;28;20057;-78
2024/03/18 15:51:56;;;;;;;19.58;12.05;;;;;;;;;;10134333;28;20409;-78
2024/03/18 15:56:49;;;;;;;15.65;12.68;;;;;;;;;;10120781;28;20048;-79
2024/03/18 16:01:40;;;;;;;15.55;12.80;;;;;;;;;;10107304;28;20056;-79
2024/03/18 16:06:33;;;;;;;16.70;13.65;;;;;;;;;;10108227;28;20056;-80
2024/03/18 16:11:26;;;;;;;17.85;12.25;;;;;;;;;;10108811;28;20445;-79
2024/03/18 16:16:18;;;;;;;17.52;12.00;;;;;;;;;;10106726;28;20060;-80
2024/03/18 16:21:11;;;;;;;17.70;12.40;;;;;;;;;;10105091;28;20053;-78
2024/03/18 16:26:03;;;;;;;18.85;13.75;;;;;;;;;;10101721;28;20045;-78
2024/03/18 16:30:55;;;;;;;13.20;11.60;;;;;;;;;;10105856;28;20052;-80
2024/03/18 16:35:47;;;;;;;14.57;12.25;;;;;;;;;;10105895;28;20043;-78
2024/03/18 16:40:41;;;;;;;18.77;13.27;;;;;;;;;;10105673;28;20053;-78
2024/03/18 16:45:33;;;;;;;21.15;14.30;;;;;;;;;;10126871;28;20056;-79
2024/03/18 16:50:25;;;;;;;18.63;16.67;;;;;;;;;;10128147;28;20059;-79
2024/03/18 16:55:18;;;;;;;20.83;13.45;;;;;;;;;;10127465;28;20451;-78
2024/03/18 17:00:14;;;;;;;23.45;14.48;;;;;;;;;;10133598;28;20056;-77
2024/03/18 17:05:07;;;;;;;21.23;13.32;;;;;;;;;;10130264;28;20045;-77
2024/03/18 17:10:00;;;;;;;21.23;13.90;;;;;;;;;;10127071;28;20067;-77
2024/03/18 17:14:52;;;;;;;33.17;22.20;;;;;;;;;;10127579;28;20049;-77
2024/03/18 17:19:44;;;;;;;21.70;13.35;;;;;;;;;;10126702;28;20485;-78
2024/03/18 17:24:37;;;;;;;42.03;30.52;;;;;;;;;;10128398;28;20067;-77
2024/03/18 17:29:29;;;;;;;42.95;27.60;;;;;;;;;;10123218;28;20044;-77
2024/03/18 17:34:22;;;;;;;25.55;19.35;;;;;;;;;;10121428;28;20047;-78
2024/03/18 17:39:15;;;;;;;23.30;18.88;;;;;;;;;;10115514;28;20060;-77
2024/03/18 17:44:07;;;;;;;32.90;27.42;;;;;;;;;;10126985;28;20055;-77
2024/03/18 17:49:00;;;;;;;28.73;23.65;;;;;;;;;;10127439;28;20500;-76
2024/03/18 17:53:53;;;;;;;15.75;13.98;;;;;;;;;;10127090;28;20048;-77
2024/03/18 17:58:44;;;;;;;16.73;14.55;;;;;;;;;;10127617;28;20579;-77
2024/03/18 18:03:37;;;;;;;38.45;30.33;;;;;;;;;;10126550;28;20043;-78
2024/03/18 18:08:30;;;;;;;36.35;27.30;;;;;;;;;;10125530;28;20052;-76
2024/03/18 18:13:25;;;;;;;15.60;13.40;;;;;;;;;;10129757;28;20052;-78
2024/03/18 18:18:18;;;;;;;20.98;16.42;;;;;;;;;;10128444;28;20040;-78
2024/03/18 18:23:10;;;;;;;15.07;13.50;;;;;;;;;;10129415;28;20458;-76
2024/03/18 18:28:02;;;;;;;16.45;12.82;;;;;;;;;;10125650;28;20076;-76
2024/03/18 18:32:54;;;;;;;16.58;14.55;;;;;;;;;;10119401;28;20048;-76
2024/03/18 18:37:47;;;;;;;17.08;11.23;;;;;;;;;;10121171;28;20098;-77
2024/03/18 18:42:39;;;;;;;13.00;11.15;;;;;;;;;;10123275;28;20052;-79
2024/03/18 18:47:33;;;;;;;11.43;10.25;;;;;;;;;;10101675;28;20055;-78
2024/03/18 18:52:26;;;;;;;14.32;12.07;;;;;;;;;;10113470;28;20045;-77
2024/03/18 18:57:18;;;;;;;18.17;12.90;;;;;;;;;;10108714;28;20482;-78
2024/03/18 19:02:10;;;;;;;18.60;14.15;;;;;;;;;;10110339;28;20083;-78
2024/03/18 19:07:04;;;;;;;23.58;15.38;;;;;;;;;;10117905;28;20041;-77
2024/03/18 19:11:58;;;;;;;16.25;14.52;;;;;;;;;;10101334;28;20497;-77
2024/03/18 19:16:51;;;;;;;13.57;11.35;;;;;;;;;;10104625;28;20041;-80
2024/03/18 19:21:44;;;;;;;18.02;12.75;;;;;;;;;;10101677;28;20049;-80
2024/03/18 19:26:37;;;;;;;17.15;14.70;;;;;;;;;;10102450;28;20045;-79
2024/03/18 19:31:32;;;;;;;16.00;11.80;;;;;;;;;;10103061;28;20095;-77
2024/03/18 19:36:24;;;;;;;15.45;11.88;;;;;;;;;;10094344;28;20135;-78
2024/03/18 19:41:16;;;;;;;18.02;12.68;;;;;;;;;;10106023;28;20067;-77
2024/03/18 19:46:09;;;;;;;20.83;14.68;;;;;;;;;;10105865;28;20083;-78
2024/03/18 19:51:01;;;;;;;15.20;13.60;;;;;;;;;;10105972;28;20053;-79
2024/03/18 19:55:53;;;;;;;15.05;11.70;;;;;;;;;;10108085;28;20045;-78
2024/03/18 20:00:51;;;;;;;17.00;14.05;;;;;;;;;;10106613;28;20460;-77
2024/03/18 20:05:44;;;;;;;14.43;11.38;;;;;;;;;;10106821;28;20197;-77
2024/03/18 20:10:37;;;;;;;20.40;14.95;;;;;;;;;;10106358;28;20095;-75
2024/03/18 20:15:29;;;;;;;21.00;17.50;;;;;;;;;;10117885;28;20045;-78
2024/03/18 20:20:21;;;;;;;23.98;17.85;;;;;;;;;;10132136;28;20056;-78
2024/03/18 20:25:15;;;;;;;25.05;17.92;;;;;;;;;;10112481;28;20056;-79
2024/03/18 20:30:30;;;;;;;23.30;17.08;;;;;;;;;;10109285;28;20133;-80
2024/03/18 20:35:23;;;;;;;24.67;18.35;;;;;;;;;;10108563;28;20048;-79
2024/03/18 20:40:17;;;;;;;25.10;18.92;;;;;;;;;;10095954;28;20119;-79
2024/03/18 20:45:12;;;;;;;28.80;21.55;;;;;;;;;;10126882;28;20059;-79
2024/03/18 20:50:06;;;;;;;25.67;20.40;;;;;;;;;;10131908;28;20048;-78
2024/03/18 20:54:59;;;;;;;29.80;22.67;;;;;;;;;;10131130;28;20511;-77
2024/03/18 20:59:51;;;;;;;28.38;22.13;;;;;;;;;;10131195;28;20127;-77
2024/03/18 21:04:44;;;;;;;30.05;25.17;;;;;;;;;;10131139;28;20110;-81
2024/03/18 21:09:41;;;;;;;28.73;22.70;;;;;;;;;;10137914;28;20068;-79
2024/03/18 21:14:50;;;;;;;27.98;21.73;;;;;;;;;;10115420;28;20043;-80
2024/03/18 21:19:42;;;;;;;27.25;22.48;;;;;;;;;;10130776;28;20041;-78
2024/03/18 21:24:34;;;;;;;29.50;22.35;;;;;;;;;;10128245;28;20511;-80
2024/03/18 21:29:26;;;;;;;32.13;25.42;;;;;;;;;;10129687;28;20036;-82
2024/03/18 21:34:19;;;;;;;31.52;24.67;;;;;;;;;;10126696;28;20048;-78
2024/03/18 21:39:13;;;;;;;34.03;25.35;;;;;;;;;;10130102;28;20135;-84
2024/03/18 21:44:06;;;;;;;44.25;29.40;;;;;;;;;;10129320;28;20049;-78
2024/03/18 21:48:57;;;;;;;40.67;30.38;;;;;;;;;;10123892;28;20094;-78
2024/03/18 21:53:51;;;;;;;47.60;31.73;;;;;;;;;;10129898;28;20120;-77
2024/03/18 21:58:43;;;;;;;40.08;29.95;;;;;;;;;;10129253;28;20075;-77
2024/03/18 22:03:36;;;;;;;49.03;39.92;;;;;;;;;;10126841;28;20442;-79
2024/03/18 22:08:29;;;;;;;52.65;41.72;;;;;;;;;;10123808;28;20041;-78
2024/03/18 22:13:21;;;;;;;79.75;51.40;;;;;;;;;;10124162;28;20060;-78
2024/03/18 22:18:14;;;;;;;92.68;59.00;;;;;;;;;;10124357;28;20133;-78
2024/03/18 22:23:07;;;;;;;99.60;61.30;;;;;;;;;;10127782;28;20539;-78
2024/03/18 22:27:59;;;;;;;96.07;58.17;;;;;;;;;;10127621;28;20565;-78
2024/03/18 22:32:51;;;;;;;94.05;56.67;;;;;;;;;;10126176;28;20500;-78
2024/03/18 22:37:45;;;;;;;93.22;57.40;;;;;;;;;;10127849;28;20048;-78
2024/03/18 22:42:38;;;;;;;64.25;46.03;;;;;;;;;;10126378;28;20052;-78
2024/03/18 22:47:31;;;;;;;44.25;31.17;;;;;;;;;;10125339;28;20102;-78
2024/03/18 22:52:23;;;;;;;47.25;33.13;;;;;;;;;;10126801;28;20059;-78
2024/03/18 22:57:15;;;;;;;75.20;46.47;;;;;;;;;;10126995;28;20048;-78
2024/03/18 23:02:07;;;;;;;87.63;56.60;;;;;;;;;;10125571;28;20052;-79
2024/03/18 23:07:00;;;;;;;61.42;39.97;;;;;;;;;;10130797;28;20047;-78
2024/03/18 23:11:53;;;;;;;87.47;55.17;;;;;;;;;;10133139;28;20049;-78
2024/03/18 23:16:46;;;;;;;98.40;61.53;;;;;;;;;;10130246;28;20420;-78
2024/03/18 23:21:39;;;;;;;92.30;58.80;;;;;;;;;;10134016;28;20053;-78
2024/03/18 23:26:31;;;;;;;81.88;52.45;;;;;;;;;;10133228;28;20045;-78
2024/03/18 23:31:31;;;;;;;73.13;48.47;;;;;;;;;;10133893;28;20585;-78
2024/03/18 23:36:23;;;;;;;50.88;34.75;;;;;;;;;;10133259;28;20464;-78
2024/03/18 23:41:15;;;;;;;44.03;31.20;;;;;;;;;;10118548;28;20052;-78
2024/03/18 23:46:27;;;;;;;43.40;33.70;;;;;;;;;;10133166;28;20420;-78
2024/03/18 23:51:19;;;;;;;67.38;42.97;;;;;;;;;;10132432;28;20053;-78
2024/03/18 23:56:12;;;;;;;45.60;33.53;;;;;;;;;;10133312;28;20064;-78
